MONTICARGO VIRTUAL AIRLINES



 METAR AND TAF INFORMATION
METAR FOR LPFR
ADDS - METARS form results

(0152 UTC 29 November 2022)
Data provider http://aviationweather.gov/metar/data/
 
METAR text: LPFR 290130Z VRB02KT CAVOK 10/07 Q1023
Conditions at: LPFR (FARO , PT) observed 0130 UTC 29 November 2022
Temperature: 10.0°C (50°F)
Dewpoint: 7.0°C (45°F) [RH = 82%]
Pressure (altimeter): 30.21 inches Hg (1023.0 mb)
Winds: variable direction winds at 2 MPH (2 knots; 1.0 m/s)
Visibility: 6 or more miles (10+ km)
Ceiling: ceiling and visibility are OK
Clouds: unknown
Weather: no significant weather observed at this time

METAR text: LPFR 290100Z 00000KT CAVOK 10/06 Q1024
Conditions at: LPFR (FARO , PT) observed 0100 UTC 29 November 2022
Temperature: 10.0°C (50°F)
Dewpoint: 6.0°C (43°F) [RH = 76%]
Pressure (altimeter): 30.24 inches Hg (1024.0 mb)
Winds: calm
Visibility: 6 or more miles (10+ km)
Ceiling: ceiling and visibility are OK
Clouds: unknown
Weather: no significant weather observed at this time

Forecast for: LPFR (FARO , PT)
Text: TAF LPFR 282300Z 2900/2924 33005KT CAVOK
Forecast period: 0000 UTC 29 November 2022 to 0000 UTC 30 November 2022
Forecast type: FROM: standard forecast or significant change
Winds: from the NNW (330 degrees) at 6 MPH (5 knots; 2.6 m/s)
Visibility: 6 or more miles (10+ km)
Ceiling: unknown
Clouds: missing
Weather: NSW  (no significant weather)
Text: BECMG 2900/2902 03005KT
Forecast period: 0000 to 0600 UTC 29 November 2022
Forecast type: BECOMING: Conditions expected to become as follows by 0200 UTC 29 November 2022
Winds: from the NNE (30 degrees) at 6 MPH (5 knots; 2.6 m/s)
Visibility: 6 or more miles (10+ km)
Ceiling: unknown
Clouds: missing
Weather: NSW  (no significant weather)
Text: BECMG 2906/2909 VRB05KT
Forecast period: 0600 to 1200 UTC 29 November 2022
Forecast type: BECOMING: Conditions expected to become as follows by 0900 UTC 29 November 2022
Winds: variable direction winds at 6 MPH (5 knots; 2.6 m/s)
Visibility: 6 or more miles (10+ km)
Ceiling: unknown
Clouds: missing
Weather: NSW  (no significant weather)
Text: BECMG 2912/2915 23008KT
Forecast period: 1200 to 1900 UTC 29 November 2022
Forecast type: BECOMING: Conditions expected to become as follows by 1500 UTC 29 November 2022
Winds: from the SW (230 degrees) at 9 MPH (8 knots; 4.1 m/s)
Visibility: 6 or more miles (10+ km)
Ceiling: unknown
Clouds: missing
Weather: NSW  (no significant weather)
Text: BECMG 2919/2921 VRB02KT
Forecast period: 1900 UTC 29 November 2022 to 0000 UTC 30 November 2022
Forecast type: BECOMING: Conditions expected to become as follows by 2100 UTC 29 November 2022
Winds: variable direction winds at 2 MPH (2 knots; 1.0 m/s)
Visibility: 6 or more miles (10+ km)
Ceiling: unknown
Clouds: missing
Weather: NSW  (no significant weather)

 AIRPORT MAP

 RUNWAY INFORMATION